Back to Top

Language: 

My Weather Underground Personal Weather Station Historical Data with Graphs...

Delerius Weather Station Historical Data
Daily Summary for March 24, 2017 Units:  Both    English   Metric
« Previous Day
Next Day »
Daily Weekly Monthly Yearly Custom
  High: Low: Average:
Temperature: 55.8 °F /  13.2 °C 33.3 °F /  0.7 °C 44 °F /  6.7 °C
Dew Point: 41.7 °F /  5.4 °C 30.4 °F /  -0.9 °C 36 °F /  2.2 °C
Humidity: 96 % 46 % 76 %
Wind Speed: 8.0 mph /  12.9 km/h - 3.3 mph /  5.3 km/h
Wind Gust: 16.0 mph /  25.7 km/h - -
Wind:- - ENE
Pressure: 30.60 in /  1036.1 hPa 30.38 in /  1028.7 hPa -
Precipitation: 0.00 in /  0 mm    
Historical Graphs
 
 
Tabular Data for March 24, 2017
Time Temperature Dew Point Pressure Wind Wind Speed Wind Gust Humidity Rainfall Rate (Hourly) solar Conditions
00:04 39.4 °F /  4.1 °C 37.8 °F /  3.2 °C 30.38 in /  1028.7 hPa NE 3.0 mph /  4.8 km/h 8.0 mph /  12.9 km/h 94 % 0.00 in /  0 mm 0 W/m2
00:09 39.4 °F /  4.1 °C 37.8 °F /  3.2 °C 30.38 in /  1028.7 hPa East 2.0 mph /  3.2 km/h 8.0 mph /  12.9 km/h 94 % 0.00 in /  0 mm 0 W/m2
00:14 39.4 °F /  4.1 °C 37.8 °F /  3.2 °C 30.38 in /  1028.7 hPa East 1.0 mph /  1.6 km/h 5.0 mph /  8 km/h 94 % 0.00 in /  0 mm 0 W/m2
00:19 39.4 °F /  4.1 °C 37.8 °F /  3.2 °C 30.38 in /  1028.7 hPa ENE 2.0 mph /  3.2 km/h 5.0 mph /  8 km/h 94 % 0.00 in /  0 mm 0 W/m2
00:24 39.4 °F /  4.1 °C 37.8 °F /  3.2 °C 30.39 in /  1029 hPa NE 2.0 mph /  3.2 km/h 6.0 mph /  9.7 km/h 94 % 0.00 in /  0 mm 0 W/m2
00:34 39.2 °F /  4 °C 37.6 °F /  3.1 °C 30.39 in /  1029 hPa NE 2.0 mph /  3.2 km/h 6.0 mph /  9.7 km/h 94 % 0.00 in /  0 mm 0 W/m2
00:39 39.2 °F /  4 °C 37.6 °F /  3.1 °C 30.40 in /  1029.3 hPa NE 3.0 mph /  4.8 km/h 7.0 mph /  11.3 km/h 94 % 0.00 in /  0 mm 0 W/m2
00:44 39.2 °F /  4 °C 37.6 °F /  3.1 °C 30.39 in /  1029 hPa NE 3.0 mph /  4.8 km/h 8.0 mph /  12.9 km/h 94 % 0.00 in /  0 mm 0 W/m2
00:49 39.0 °F /  3.9 °C 37.4 °F /  3 °C 30.39 in /  1029 hPa NE 4.0 mph /  6.4 km/h 10.0 mph /  16.1 km/h 94 % 0.00 in /  0 mm 0 W/m2
00:54 39.0 °F /  3.9 °C 37.4 °F /  3 °C 30.40 in /  1029.3 hPa NE 4.0 mph /  6.4 km/h 10.0 mph /  16.1 km/h 94 % 0.00 in /  0 mm 0 W/m2
00:59 39.0 °F /  3.9 °C 37.4 °F /  3 °C 30.40 in /  1029.3 hPa NE 4.0 mph /  6.4 km/h 9.0 mph /  14.5 km/h 94 % 0.00 in /  0 mm 0 W/m2
01:04 39.0 °F /  3.9 °C 37.4 °F /  3 °C 30.40 in /  1029.3 hPa NNE 4.0 mph /  6.4 km/h 9.0 mph /  14.5 km/h 94 % 0.00 in /  0 mm 0 W/m2
01:09 39.2 °F /  4 °C 37.6 °F /  3.1 °C 30.40 in /  1029.3 hPa NNE 3.0 mph /  4.8 km/h 9.0 mph /  14.5 km/h 94 % 0.00 in /  0 mm 0 W/m2
01:14 39.2 °F /  4 °C 37.6 °F /  3.1 °C 30.40 in /  1029.3 hPa NNE 3.0 mph /  4.8 km/h 9.0 mph /  14.5 km/h 94 % 0.00 in /  0 mm 0 W/m2
01:19 39.2 °F /  4 °C 37.6 °F /  3.1 °C 30.40 in /  1029.3 hPa NNE 4.0 mph /  6.4 km/h 9.0 mph /  14.5 km/h 94 % 0.00 in /  0 mm 0 W/m2
01:24 39.2 °F /  4 °C 37.6 °F /  3.1 °C 30.41 in /  1029.7 hPa NNE 5.0 mph /  8 km/h 9.0 mph /  14.5 km/h 94 % 0.00 in /  0 mm 0 W/m2
01:29 39.2 °F /  4 °C 37.6 °F /  3.1 °C 30.41 in /  1029.7 hPa NNE 4.0 mph /  6.4 km/h 8.0 mph /  12.9 km/h 94 % 0.00 in /  0 mm 0 W/m2
01:34 39.0 °F /  3.9 °C 37.4 °F /  3 °C 30.41 in /  1029.7 hPa NNE 4.0 mph /  6.4 km/h 8.0 mph /  12.9 km/h 94 % 0.00 in /  0 mm 0 W/m2
01:39 39.0 °F /  3.9 °C 37.4 °F /  3 °C 30.41 in /  1029.7 hPa North 4.0 mph /  6.4 km/h 8.0 mph /  12.9 km/h 94 % 0.00 in /  0 mm 0 W/m2
01:44 38.8 °F /  3.8 °C 37.3 °F /  2.9 °C 30.41 in /  1029.7 hPa NNE 4.0 mph /  6.4 km/h 9.0 mph /  14.5 km/h 94 % 0.00 in /  0 mm 0 W/m2
01:49 38.8 °F /  3.8 °C 37.3 °F /  2.9 °C 30.42 in /  1030 hPa NNE 4.0 mph /  6.4 km/h 9.0 mph /  14.5 km/h 94 % 0.00 in /  0 mm 0 W/m2
01:54 38.8 °F /  3.8 °C 37.3 °F /  2.9 °C 30.42 in /  1030 hPa NNE 4.0 mph /  6.4 km/h 9.0 mph /  14.5 km/h 94 % 0.00 in /  0 mm 0 W/m2
01:59 38.7 °F /  3.7 °C 37.1 °F /  2.8 °C 30.42 in /  1030 hPa NNE 5.0 mph /  8 km/h 10.0 mph /  16.1 km/h 94 % 0.00 in /  0 mm 0 W/m2
02:04 38.5 °F /  3.6 °C 36.9 °F /  2.7 °C 30.42 in /  1030 hPa North 5.0 mph /  8 km/h 10.0 mph /  16.1 km/h 94 % 0.00 in /  0 mm 0 W/m2
02:09 38.3 °F /  3.5 °C 36.7 °F /  2.6 °C 30.41 in /  1029.7 hPa North 5.0 mph /  8 km/h 9.0 mph /  14.5 km/h 94 % 0.00 in /  0 mm 0 W/m2
02:14 38.1 °F /  3.4 °C 36.5 °F /  2.5 °C 30.41 in /  1029.7 hPa NNE 3.0 mph /  4.8 km/h 8.0 mph /  12.9 km/h 94 % 0.00 in /  0 mm 0 W/m2
02:19 37.9 °F /  3.3 °C 36.4 °F /  2.4 °C 30.41 in /  1029.7 hPa NNE 2.0 mph /  3.2 km/h 7.0 mph /  11.3 km/h 94 % 0.00 in /  0 mm 0 W/m2
02:25 37.9 °F /  3.3 °C 36.4 °F /  2.4 °C 30.41 in /  1029.7 hPa NNE 2.0 mph /  3.2 km/h 7.0 mph /  11.3 km/h 94 % 0.00 in /  0 mm 0 W/m2
02:30 37.8 °F /  3.2 °C 36.2 °F /  2.3 °C 30.41 in /  1029.7 hPa NE 2.0 mph /  3.2 km/h 8.0 mph /  12.9 km/h 94 % 0.00 in /  0 mm 0 W/m2
02:35 37.6 °F /  3.1 °C 36.0 °F /  2.2 °C 30.41 in /  1029.7 hPa NE 2.0 mph /  3.2 km/h 8.0 mph /  12.9 km/h 94 % 0.00 in /  0 mm 0 W/m2
02:40 37.6 °F /  3.1 °C 36.0 °F /  2.2 °C 30.41 in /  1029.7 hPa NNE 2.0 mph /  3.2 km/h 8.0 mph /  12.9 km/h 94 % 0.00 in /  0 mm 0 W/m2
02:45 37.6 °F /  3.1 °C 36.3 °F /  2.4 °C 30.41 in /  1029.7 hPa NNE 3.0 mph /  4.8 km/h 7.0 mph /  11.3 km/h 95 % 0.00 in /  0 mm 0 W/m2
02:50 37.4 °F /  3 °C 36.1 °F /  2.3 °C 30.41 in /  1029.7 hPa NNE 3.0 mph /  4.8 km/h 8.0 mph /  12.9 km/h 95 % 0.00 in /  0 mm 0 W/m2
02:55 37.4 °F /  3 °C 36.1 °F /  2.3 °C 30.41 in /  1029.7 hPa NNE 4.0 mph /  6.4 km/h 8.0 mph /  12.9 km/h 95 % 0.00 in /  0 mm 0 W/m2
03:00 37.2 °F /  2.9 °C 35.9 °F /  2.2 °C 30.41 in /  1029.7 hPa NNE 2.0 mph /  3.2 km/h 7.0 mph /  11.3 km/h 95 % 0.00 in /  0 mm 0 W/m2
03:05 37.0 °F /  2.8 °C 35.7 °F /  2.1 °C 30.41 in /  1029.7 hPa NNE 1.0 mph /  1.6 km/h 7.0 mph /  11.3 km/h 95 % 0.00 in /  0 mm 0 W/m2
03:10 37.0 °F /  2.8 °C 35.5 °F /  1.9 °C 30.41 in /  1029.7 hPa Calm     94 % 0.00 in /  0 mm 0 W/m2
03:15 36.9 °F /  2.7 °C 35.6 °F /  2 °C 30.41 in /  1029.7 hPa Calm   1.0 mph /  1.6 km/h 95 % 0.00 in /  0 mm 0 W/m2
03:20 36.7 °F /  2.6 °C 35.4 °F /  1.9 °C 30.42 in /  1030 hPa Calm   1.0 mph /  1.6 km/h 95 % 0.00 in /  0 mm 0 W/m2
03:25 36.5 °F /  2.5 °C 35.2 °F /  1.8 °C 30.41 in /  1029.7 hPa Calm     95 % 0.00 in /  0 mm 0 W/m2
03:35 36.1 °F /  2.3 °C 34.8 °F /  1.6 °C 30.42 in /  1030 hPa Calm   3.0 mph /  4.8 km/h 95 % 0.00 in /  0 mm 0 W/m2
03:40 36.1 °F /  2.3 °C 34.8 °F /  1.6 °C 30.41 in /  1029.7 hPa NE 1.0 mph /  1.6 km/h 5.0 mph /  8 km/h 95 % 0.00 in /  0 mm 0 W/m2
03:45 36.3 °F /  2.4 °C 35.0 °F /  1.7 °C 30.42 in /  1030 hPa NE 1.0 mph /  1.6 km/h 5.0 mph /  8 km/h 95 % 0.00 in /  0 mm 0 W/m2
03:50 36.3 °F /  2.4 °C 35.0 °F /  1.7 °C 30.42 in /  1030 hPa ENE 1.0 mph /  1.6 km/h 5.0 mph /  8 km/h 95 % 0.00 in /  0 mm 0 W/m2
03:55 36.1 °F /  2.3 °C 34.8 °F /  1.6 °C 30.42 in /  1030 hPa NE 1.0 mph /  1.6 km/h 5.0 mph /  8 km/h 95 % 0.00 in /  0 mm 0 W/m2
04:00 36.1 °F /  2.3 °C 34.8 °F /  1.6 °C 30.42 in /  1030 hPa NNE 1.0 mph /  1.6 km/h 5.0 mph /  8 km/h 95 % 0.00 in /  0 mm 0 W/m2
04:05 36.1 °F /  2.3 °C 34.8 °F /  1.6 °C 30.42 in /  1030 hPa Calm   5.0 mph /  8 km/h 95 % 0.00 in /  0 mm 0 W/m2
04:10 36.1 °F /  2.3 °C 34.8 °F /  1.6 °C 30.42 in /  1030 hPa Calm   2.0 mph /  3.2 km/h 95 % 0.00 in /  0 mm 0 W/m2
04:15 36.0 °F /  2.2 °C 34.7 °F /  1.5 °C 30.42 in /  1030 hPa Calm   2.0 mph /  3.2 km/h 95 % 0.00 in /  0 mm 0 W/m2
04:20 36.0 °F /  2.2 °C 34.7 °F /  1.5 °C 30.42 in /  1030 hPa Calm   2.0 mph /  3.2 km/h 95 % 0.00 in /  0 mm 0 W/m2
04:25 35.8 °F /  2.1 °C 34.5 °F /  1.4 °C 30.42 in /  1030 hPa Calm   2.0 mph /  3.2 km/h 95 % 0.00 in /  0 mm 0 W/m2
04:30 35.8 °F /  2.1 °C 34.5 °F /  1.4 °C 30.43 in /  1030.4 hPa Calm   4.0 mph /  6.4 km/h 95 % 0.00 in /  0 mm 0 W/m2
04:35 35.8 °F /  2.1 °C 34.5 °F /  1.4 °C 30.43 in /  1030.4 hPa NNW 1.0 mph /  1.6 km/h 5.0 mph /  8 km/h 95 % 0.00 in /  0 mm 0 W/m2
04:40 35.8 °F /  2.1 °C 34.8 °F /  1.6 °C 30.43 in /  1030.4 hPa North 1.0 mph /  1.6 km/h 5.0 mph /  8 km/h 96 % 0.00 in /  0 mm 0 W/m2
04:45 35.8 °F /  2.1 °C 34.8 °F /  1.6 °C 30.43 in /  1030.4 hPa North 1.0 mph /  1.6 km/h 6.0 mph /  9.7 km/h 96 % 0.00 in /  0 mm 0 W/m2
04:50 36.0 °F /  2.2 °C 34.9 °F /  1.6 °C 30.43 in /  1030.4 hPa North 2.0 mph /  3.2 km/h 8.0 mph /  12.9 km/h 96 % 0.00 in /  0 mm 0 W/m2
04:55 36.1 °F /  2.3 °C 35.1 °F /  1.7 °C 30.43 in /  1030.4 hPa North 3.0 mph /  4.8 km/h 9.0 mph /  14.5 km/h 96 % 0.00 in /  0 mm 0 W/m2
05:00 36.1 °F /  2.3 °C 35.1 °F /  1.7 °C 30.44 in /  1030.7 hPa North 2.0 mph /  3.2 km/h 9.0 mph /  14.5 km/h 96 % 0.00 in /  0 mm 0 W/m2
05:05 36.0 °F /  2.2 °C 34.9 °F /  1.6 °C 30.44 in /  1030.7 hPa NNE 2.0 mph /  3.2 km/h 9.0 mph /  14.5 km/h 96 % 0.00 in /  0 mm 0 W/m2
05:10 36.0 °F /  2.2 °C 34.9 °F /  1.6 °C 30.43 in /  1030.4 hPa NNE 2.0 mph /  3.2 km/h 9.0 mph /  14.5 km/h 96 % 0.00 in /  0 mm 0 W/m2
05:15 36.0 °F /  2.2 °C 34.7 °F /  1.5 °C 30.44 in /  1030.7 hPa Calm   7.0 mph /  11.3 km/h 95 % 0.00 in /  0 mm 0 W/m2
05:20 35.8 °F /  2.1 °C 34.5 °F /  1.4 °C 30.43 in /  1030.4 hPa Calm   4.0 mph /  6.4 km/h 95 % 0.00 in /  0 mm 0 W/m2
05:25 35.8 °F /  2.1 °C 34.5 °F /  1.4 °C 30.43 in /  1030.4 hPa Calm   4.0 mph /  6.4 km/h 95 % 0.00 in /  0 mm 0 W/m2
05:30 35.8 °F /  2.1 °C 34.8 °F /  1.6 °C 30.43 in /  1030.4 hPa NNE 1.0 mph /  1.6 km/h 7.0 mph /  11.3 km/h 96 % 0.00 in /  0 mm 0 W/m2
05:35 35.8 °F /  2.1 °C 34.8 °F /  1.6 °C 30.43 in /  1030.4 hPa NNE 2.0 mph /  3.2 km/h 7.0 mph /  11.3 km/h 96 % 0.00 in /  0 mm 0 W/m2
05:41 35.6 °F /  2 °C 34.6 °F /  1.4 °C 30.43 in /  1030.4 hPa NNE 1.0 mph /  1.6 km/h 6.0 mph /  9.7 km/h 96 % 0.00 in /  0 mm 0 W/m2
05:46 35.6 °F /  2 °C 34.6 °F /  1.4 °C 30.43 in /  1030.4 hPa NNE 1.0 mph /  1.6 km/h 6.0 mph /  9.7 km/h 96 % 0.00 in /  0 mm 0 W/m2
05:51 35.4 °F /  1.9 °C 34.4 °F /  1.3 °C 30.43 in /  1030.4 hPa Calm   3.0 mph /  4.8 km/h 96 % 0.00 in /  0 mm 5 W/m2
05:56 35.4 °F /  1.9 °C 34.1 °F /  1.2 °C 30.44 in /  1030.7 hPa Calm   3.0 mph /  4.8 km/h 95 % 0.00 in /  0 mm 5 W/m2
06:01 35.2 °F /  1.8 °C 34.2 °F /  1.2 °C 30.44 in /  1030.7 hPa NNE 1.0 mph /  1.6 km/h 7.0 mph /  11.3 km/h 96 % 0.00 in /  0 mm 5 W/m2
06:06 35.2 °F /  1.8 °C 34.2 °F /  1.2 °C 30.44 in /  1030.7 hPa NNE 1.0 mph /  1.6 km/h 7.0 mph /  11.3 km/h 96 % 0.00 in /  0 mm 9 W/m2
06:11 35.2 °F /  1.8 °C 34.2 °F /  1.2 °C 30.44 in /  1030.7 hPa Calm   4.0 mph /  6.4 km/h 96 % 0.00 in /  0 mm 14 W/m2
06:16 35.1 °F /  1.7 °C 34.0 °F /  1.1 °C 30.44 in /  1030.7 hPa Calm   5.0 mph /  8 km/h 96 % 0.00 in /  0 mm 19 W/m2
06:21 35.2 °F /  1.8 °C 34.2 °F /  1.2 °C 30.44 in /  1030.7 hPa North 1.0 mph /  1.6 km/h 5.0 mph /  8 km/h 96 % 0.00 in /  0 mm 23 W/m2
06:26 35.4 °F /  1.9 °C 34.4 °F /  1.3 °C 30.45 in /  1031 hPa North 2.0 mph /  3.2 km/h 9.0 mph /  14.5 km/h 96 % 0.00 in /  0 mm 26 W/m2
06:31 35.8 °F /  2.1 °C 34.8 °F /  1.6 °C 30.45 in /  1031 hPa North 3.0 mph /  4.8 km/h 9.0 mph /  14.5 km/h 96 % 0.00 in /  0 mm 28 W/m2
06:36 36.0 °F /  2.2 °C 34.9 °F /  1.6 °C 30.45 in /  1031 hPa NNE 4.0 mph /  6.4 km/h 9.0 mph /  14.5 km/h 96 % 0.00 in /  0 mm 30 W/m2
06:41 36.0 °F /  2.2 °C 34.9 °F /  1.6 °C 30.46 in /  1031.4 hPa NNE 5.0 mph /  8 km/h 10.0 mph /  16.1 km/h 96 % 0.00 in /  0 mm 33 W/m2
06:46 36.1 °F /  2.3 °C 35.1 °F /  1.7 °C 30.46 in /  1031.4 hPa North 6.0 mph /  9.7 km/h 10.0 mph /  16.1 km/h 96 % 0.00 in /  0 mm 39 W/m2
06:51 36.1 °F /  2.3 °C 35.1 °F /  1.7 °C 30.46 in /  1031.4 hPa North 6.0 mph /  9.7 km/h 13.0 mph /  20.9 km/h 96 % 0.00 in /  0 mm 44 W/m2
06:56 36.3 °F /  2.4 °C 35.3 °F /  1.8 °C 30.46 in /  1031.4 hPa North 6.0 mph /  9.7 km/h 13.0 mph /  20.9 km/h 96 % 0.00 in /  0 mm 54 W/m2
07:01 36.3 °F /  2.4 °C 35.3 °F /  1.8 °C 30.46 in /  1031.4 hPa North 6.0 mph /  9.7 km/h 15.0 mph /  24.1 km/h 96 % 0.00 in /  0 mm 62 W/m2
07:06 36.7 °F /  2.6 °C 35.6 °F /  2 °C 30.46 in /  1031.4 hPa North 7.0 mph /  11.3 km/h 15.0 mph /  24.1 km/h 96 % 0.00 in /  0 mm 139 W/m2
07:11 37.0 °F /  2.8 °C 36.0 °F /  2.2 °C 30.47 in /  1031.7 hPa North 8.0 mph /  12.9 km/h 13.0 mph /  20.9 km/h 96 % 0.00 in /  0 mm 160 W/m2
07:16 37.2 °F /  2.9 °C 36.2 °F /  2.3 °C 30.47 in /  1031.7 hPa North 8.0 mph /  12.9 km/h 14.0 mph /  22.5 km/h 96 % 0.00 in /  0 mm 181 W/m2
07:21 37.6 °F /  3.1 °C 36.5 °F /  2.5 °C 30.47 in /  1031.7 hPa NNE 8.0 mph /  12.9 km/h 14.0 mph /  22.5 km/h 96 % 0.00 in /  0 mm 190 W/m2
07:26 37.9 °F /  3.3 °C 36.9 °F /  2.7 °C 30.47 in /  1031.7 hPa NNE 7.0 mph /  11.3 km/h 14.0 mph /  22.5 km/h 96 % 0.00 in /  0 mm 239 W/m2
07:31 38.1 °F /  3.4 °C 37.1 °F /  2.8 °C 30.47 in /  1031.7 hPa NNE 7.0 mph /  11.3 km/h 12.0 mph /  19.3 km/h 96 % 0.00 in /  0 mm 253 W/m2
07:36 38.5 °F /  3.6 °C 37.4 °F /  3 °C 30.47 in /  1031.7 hPa North 8.0 mph /  12.9 km/h 13.0 mph /  20.9 km/h 96 % 0.00 in /  0 mm 216 W/m2
07:41 38.8 °F /  3.8 °C 37.8 °F /  3.2 °C 30.48 in /  1032.1 hPa NNE 7.0 mph /  11.3 km/h 13.0 mph /  20.9 km/h 96 % 0.00 in /  0 mm 200 W/m2
07:46 39.0 °F /  3.9 °C 38.0 °F /  3.3 °C 30.48 in /  1032.1 hPa NNE 4.0 mph /  6.4 km/h 11.0 mph /  17.7 km/h 96 % 0.00 in /  0 mm 163 W/m2
07:51 39.4 °F /  4.1 °C 38.1 °F /  3.4 °C 30.48 in /  1032.1 hPa NE 2.0 mph /  3.2 km/h 9.0 mph /  14.5 km/h 95 % 0.00 in /  0 mm 178 W/m2
07:56 39.6 °F /  4.2 °C 38.2 °F /  3.4 °C 30.48 in /  1032.1 hPa NE 1.0 mph /  1.6 km/h 6.0 mph /  9.7 km/h 95 % 0.00 in /  0 mm 171 W/m2
08:06 40.3 °F /  4.6 °C 39.0 °F /  3.9 °C 30.48 in /  1032.1 hPa NE 1.0 mph /  1.6 km/h 6.0 mph /  9.7 km/h 95 % 0.00 in /  0 mm 199 W/m2
08:11 40.6 °F /  4.8 °C 39.0 °F /  3.9 °C 30.49 in /  1032.4 hPa NE 1.0 mph /  1.6 km/h 6.0 mph /  9.7 km/h 94 % 0.00 in /  0 mm 178 W/m2
08:16 40.8 °F /  4.9 °C 39.0 °F /  3.9 °C 30.49 in /  1032.4 hPa NE 1.0 mph /  1.6 km/h 5.0 mph /  8 km/h 93 % 0.00 in /  0 mm 174 W/m2
08:21 41.0 °F /  5 °C 39.1 °F /  3.9 °C 30.49 in /  1032.4 hPa NE 2.0 mph /  3.2 km/h 7.0 mph /  11.3 km/h 93 % 0.00 in /  0 mm 188 W/m2
08:26 41.2 °F /  5.1 °C 39.3 °F /  4.1 °C 30.49 in /  1032.4 hPa NE 3.0 mph /  4.8 km/h 7.0 mph /  11.3 km/h 93 % 0.00 in /  0 mm 267 W/m2
08:31 41.5 °F /  5.3 °C 39.4 °F /  4.1 °C 30.49 in /  1032.4 hPa NE 3.0 mph /  4.8 km/h 7.0 mph /  11.3 km/h 92 % 0.00 in /  0 mm 265 W/m2
08:36 42.1 °F /  5.6 °C 39.9 °F /  4.4 °C 30.49 in /  1032.4 hPa NE 2.0 mph /  3.2 km/h 6.0 mph /  9.7 km/h 92 % 0.00 in /  0 mm 309 W/m2
08:41 42.8 °F /  6 °C 40.4 °F /  4.7 °C 30.50 in /  1032.7 hPa ENE 2.0 mph /  3.2 km/h 8.0 mph /  12.9 km/h 91 % 0.00 in /  0 mm 388 W/m2
08:46 43.5 °F /  6.4 °C 40.8 °F /  4.9 °C 30.50 in /  1032.7 hPa ENE 3.0 mph /  4.8 km/h 8.0 mph /  12.9 km/h 90 % 0.00 in /  0 mm 399 W/m2
08:51 44.1 °F /  6.7 °C 40.4 °F /  4.7 °C 30.50 in /  1032.7 hPa ENE 3.0 mph /  4.8 km/h 9.0 mph /  14.5 km/h 87 % 0.00 in /  0 mm 415 W/m2
08:57 44.6 °F /  7 °C 41.0 °F /  5 °C 30.50 in /  1032.7 hPa ENE 3.0 mph /  4.8 km/h 9.0 mph /  14.5 km/h 87 % 0.00 in /  0 mm 429 W/m2
09:02 45.0 °F /  7.2 °C 40.4 °F /  4.7 °C 30.50 in /  1032.7 hPa NE 3.0 mph /  4.8 km/h 8.0 mph /  12.9 km/h 84 % 0.00 in /  0 mm 432 W/m2
09:07 45.0 °F /  7.2 °C 40.4 °F /  4.7 °C 30.50 in /  1032.7 hPa NE 5.0 mph /  8 km/h 11.0 mph /  17.7 km/h 84 % 0.00 in /  0 mm 434 W/m2
09:12 45.1 °F /  7.3 °C 40.3 °F /  4.6 °C 30.50 in /  1032.7 hPa NNE 5.0 mph /  8 km/h 11.0 mph /  17.7 km/h 83 % 0.00 in /  0 mm 461 W/m2
09:17 45.7 °F /  7.6 °C 40.8 °F /  4.9 °C 30.50 in /  1032.7 hPa NE 4.0 mph /  6.4 km/h 9.0 mph /  14.5 km/h 83 % 0.00 in /  0 mm 452 W/m2
09:22 46.0 °F /  7.8 °C 40.5 °F /  4.7 °C 30.50 in /  1032.7 hPa NE 4.0 mph /  6.4 km/h 11.0 mph /  17.7 km/h 81 % 0.00 in /  0 mm 485 W/m2
09:27 46.6 °F /  8.1 °C 40.4 °F /  4.7 °C 30.51 in /  1033.1 hPa ENE 4.0 mph /  6.4 km/h 11.0 mph /  17.7 km/h 79 % 0.00 in /  0 mm 501 W/m2
09:32 46.9 °F /  8.3 °C 40.4 °F /  4.7 °C 30.51 in /  1033.1 hPa ENE 5.0 mph /  8 km/h 10.0 mph /  16.1 km/h 78 % 0.00 in /  0 mm 510 W/m2
09:37 47.1 °F /  8.4 °C 40.6 °F /  4.8 °C 30.51 in /  1033.1 hPa ENE 5.0 mph /  8 km/h 10.0 mph /  16.1 km/h 78 % 0.00 in /  0 mm 519 W/m2
09:42 47.5 °F /  8.6 °C 39.9 °F /  4.4 °C 30.51 in /  1033.1 hPa ENE 5.0 mph /  8 km/h 10.0 mph /  16.1 km/h 75 % 0.00 in /  0 mm 529 W/m2
09:47 47.7 °F /  8.7 °C 40.5 °F /  4.7 °C 30.51 in /  1033.1 hPa ENE 4.0 mph /  6.4 km/h 10.0 mph /  16.1 km/h 76 % 0.00 in /  0 mm 541 W/m2
09:52 47.7 °F /  8.7 °C 40.1 °F /  4.5 °C 30.51 in /  1033.1 hPa ENE 5.0 mph /  8 km/h 12.0 mph /  19.3 km/h 75 % 0.00 in /  0 mm 555 W/m2
09:57 48.0 °F /  8.9 °C 40.5 °F /  4.7 °C 30.52 in /  1033.4 hPa ENE 5.0 mph /  8 km/h 12.0 mph /  19.3 km/h 75 % 0.00 in /  0 mm 561 W/m2
10:02 48.6 °F /  9.2 °C 40.6 °F /  4.8 °C 30.51 in /  1033.1 hPa ENE 4.0 mph /  6.4 km/h 10.0 mph /  16.1 km/h 74 % 0.00 in /  0 mm 570 W/m2
10:07 48.9 °F /  9.4 °C 40.3 °F /  4.6 °C 30.51 in /  1033.1 hPa ENE 4.0 mph /  6.4 km/h 11.0 mph /  17.7 km/h 72 % 0.00 in /  0 mm 582 W/m2
10:12 48.9 °F /  9.4 °C 40.3 °F /  4.6 °C 30.52 in /  1033.4 hPa ENE 6.0 mph /  9.7 km/h 16.0 mph /  25.7 km/h 72 % 0.00 in /  0 mm 587 W/m2
10:17 49.3 °F /  9.6 °C 40.6 °F /  4.8 °C 30.51 in /  1033.1 hPa ENE 6.0 mph /  9.7 km/h 16.0 mph /  25.7 km/h 72 % 0.00 in /  0 mm 603 W/m2
10:22 49.6 °F /  9.8 °C 41.0 °F /  5 °C 30.52 in /  1033.4 hPa East 5.0 mph /  8 km/h 12.0 mph /  19.3 km/h 72 % 0.00 in /  0 mm 608 W/m2
10:27 49.8 °F /  9.9 °C 41.2 °F /  5.1 °C 30.52 in /  1033.4 hPa ENE 5.0 mph /  8 km/h 12.0 mph /  19.3 km/h 72 % 0.00 in /  0 mm 628 W/m2
10:32 49.8 °F /  9.9 °C 41.2 °F /  5.1 °C 30.53 in /  1033.7 hPa ENE 6.0 mph /  9.7 km/h 14.0 mph /  22.5 km/h 72 % 0.00 in /  0 mm 631 W/m2
10:37 50.0 °F /  10 °C 41.7 °F /  5.4 °C 30.53 in /  1033.7 hPa ENE 7.0 mph /  11.3 km/h 14.0 mph /  22.5 km/h 73 % 0.00 in /  0 mm 656 W/m2
10:42 50.0 °F /  10 °C 41.0 °F /  5 °C 30.52 in /  1033.4 hPa ENE 7.0 mph /  11.3 km/h 15.0 mph /  24.1 km/h 71 % 0.00 in /  0 mm 696 W/m2
10:47 50.2 °F /  10.1 °C 41.1 °F /  5.1 °C 30.53 in /  1033.7 hPa ENE 8.0 mph /  12.9 km/h 15.0 mph /  24.1 km/h 71 % 0.00 in /  0 mm 668 W/m2
10:52 50.4 °F /  10.2 °C 40.6 °F /  4.8 °C 30.52 in /  1033.4 hPa ENE 7.0 mph /  11.3 km/h 14.0 mph /  22.5 km/h 69 % 0.00 in /  0 mm 664 W/m2
10:57 50.7 °F /  10.4 °C 40.2 °F /  4.6 °C 30.53 in /  1033.7 hPa ENE 7.0 mph /  11.3 km/h 13.0 mph /  20.9 km/h 67 % 0.00 in /  0 mm 656 W/m2
11:02 51.1 °F /  10.6 °C 39.7 °F /  4.3 °C 30.53 in /  1033.7 hPa ENE 7.0 mph /  11.3 km/h 13.0 mph /  20.9 km/h 65 % 0.00 in /  0 mm 657 W/m2
11:07 51.6 °F /  10.9 °C 40.2 °F /  4.6 °C 30.52 in /  1033.4 hPa East 6.0 mph /  9.7 km/h 13.0 mph /  20.9 km/h 65 % 0.00 in /  0 mm 656 W/m2
11:13 52.2 °F /  11.2 °C 40.3 °F /  4.6 °C 30.52 in /  1033.4 hPa East 5.0 mph /  8 km/h 11.0 mph /  17.7 km/h 64 % 0.00 in /  0 mm 671 W/m2
11:18 52.5 °F /  11.4 °C 41.1 °F /  5.1 °C 30.52 in /  1033.4 hPa East 6.0 mph /  9.7 km/h 13.0 mph /  20.9 km/h 65 % 0.00 in /  0 mm 663 W/m2
11:28 52.5 °F /  11.4 °C 40.7 °F /  4.8 °C 30.52 in /  1033.4 hPa East 6.0 mph /  9.7 km/h 12.0 mph /  19.3 km/h 64 % 0.00 in /  0 mm 657 W/m2
11:33 52.9 °F /  11.6 °C 39.8 °F /  4.3 °C 30.51 in /  1033.1 hPa East 7.0 mph /  11.3 km/h 14.0 mph /  22.5 km/h 61 % 0.00 in /  0 mm 675 W/m2
11:38 52.9 °F /  11.6 °C 39.8 °F /  4.3 °C 30.51 in /  1033.1 hPa East 7.0 mph /  11.3 km/h 14.0 mph /  22.5 km/h 61 % 0.00 in /  0 mm 686 W/m2
11:43 53.2 °F /  11.8 °C 38.4 °F /  3.6 °C 30.51 in /  1033.1 hPa East 7.0 mph /  11.3 km/h 14.0 mph /  22.5 km/h 57 % 0.00 in /  0 mm 684 W/m2
11:48 53.1 °F /  11.7 °C 38.2 °F /  3.4 °C 30.51 in /  1033.1 hPa East 8.0 mph /  12.9 km/h 14.0 mph /  22.5 km/h 57 % 0.00 in /  0 mm 668 W/m2
11:53 53.1 °F /  11.7 °C 37.8 °F /  3.2 °C 30.51 in /  1033.1 hPa East 8.0 mph /  12.9 km/h 14.0 mph /  22.5 km/h 56 % 0.00 in /  0 mm 663 W/m2
11:58 53.1 °F /  11.7 °C 37.3 °F /  2.9 °C 30.51 in /  1033.1 hPa ESE 8.0 mph /  12.9 km/h 14.0 mph /  22.5 km/h 55 % 0.00 in /  0 mm 680 W/m2
12:03 53.2 °F /  11.8 °C 38.4 °F /  3.6 °C 30.51 in /  1033.1 hPa ESE 8.0 mph /  12.9 km/h 14.0 mph /  22.5 km/h 57 % 0.00 in /  0 mm 666 W/m2
12:07 53.2 °F /  11.8 °C 38.8 °F /  3.8 °C 30.51 in /  1033.1 hPa East 6.0 mph /  9.7 km/h 14.0 mph /  22.5 km/h 58 % 0.00 in /  0 mm 687 W/m2
12:12 53.6 °F /  12 °C 38.7 °F /  3.7 °C 30.51 in /  1033.1 hPa East 5.0 mph /  8 km/h 11.0 mph /  17.7 km/h 57 % 0.00 in /  0 mm 684 W/m2
12:17 54.0 °F /  12.2 °C 38.1 °F /  3.4 °C 30.51 in /  1033.1 hPa East 6.0 mph /  9.7 km/h 15.0 mph /  24.1 km/h 55 % 0.00 in /  0 mm 693 W/m2
12:22 54.0 °F /  12.2 °C 37.7 °F /  3.2 °C 30.51 in /  1033.1 hPa ESE 7.0 mph /  11.3 km/h 15.0 mph /  24.1 km/h 54 % 0.00 in /  0 mm 700 W/m2
12:27 54.1 °F /  12.3 °C 37.8 °F /  3.2 °C 30.51 in /  1033.1 hPa East 7.0 mph /  11.3 km/h 15.0 mph /  24.1 km/h 54 % 0.00 in /  0 mm 689 W/m2
12:32 54.3 °F /  12.4 °C 38.5 °F /  3.6 °C 30.51 in /  1033.1 hPa East 6.0 mph /  9.7 km/h 15.0 mph /  24.1 km/h 55 % 0.00 in /  0 mm 687 W/m2
12:37 54.5 °F /  12.5 °C 36.2 °F /  2.3 °C 30.51 in /  1033.1 hPa East 7.0 mph /  11.3 km/h 16.0 mph /  25.7 km/h 50 % 0.00 in /  0 mm 642 W/m2
12:42 54.3 °F /  12.4 °C 35.5 °F /  1.9 °C 30.51 in /  1033.1 hPa East 7.0 mph /  11.3 km/h 16.0 mph /  25.7 km/h 49 % 0.00 in /  0 mm 652 W/m2
12:47 54.3 °F /  12.4 °C 35.5 °F /  1.9 °C 30.51 in /  1033.1 hPa East 7.0 mph /  11.3 km/h 12.0 mph /  19.3 km/h 49 % 0.00 in /  0 mm 670 W/m2
12:52 54.3 °F /  12.4 °C 36.6 °F /  2.6 °C 30.51 in /  1033.1 hPa East 6.0 mph /  9.7 km/h 12.0 mph /  19.3 km/h 51 % 0.00 in /  0 mm 664 W/m2
12:57 54.5 °F /  12.5 °C 38.2 °F /  3.4 °C 30.51 in /  1033.1 hPa ENE 6.0 mph /  9.7 km/h 13.0 mph /  20.9 km/h 54 % 0.00 in /  0 mm 673 W/m2
13:02 54.9 °F /  12.7 °C 37.1 °F /  2.8 °C 30.51 in /  1033.1 hPa East 6.0 mph /  9.7 km/h 13.0 mph /  20.9 km/h 51 % 0.00 in /  0 mm 642 W/m2
13:07 54.7 °F /  12.6 °C 35.9 °F /  2.2 °C 30.51 in /  1033.1 hPa East 5.0 mph /  8 km/h 11.0 mph /  17.7 km/h 49 % 0.00 in /  0 mm 656 W/m2
13:12 54.9 °F /  12.7 °C 34.5 °F /  1.4 °C 30.51 in /  1033.1 hPa East 6.0 mph /  9.7 km/h 16.0 mph /  25.7 km/h 46 % 0.00 in /  0 mm 663 W/m2
13:17 54.9 °F /  12.7 °C 35.0 °F /  1.7 °C 30.52 in /  1033.4 hPa East 8.0 mph /  12.9 km/h 16.0 mph /  25.7 km/h 47 % 0.00 in /  0 mm 650 W/m2
13:22 54.9 °F /  12.7 °C 34.5 °F /  1.4 °C 30.52 in /  1033.4 hPa East 8.0 mph /  12.9 km/h 14.0 mph /  22.5 km/h 46 % 0.00 in /  0 mm 654 W/m2
13:27 54.7 °F /  12.6 °C 35.4 °F /  1.9 °C 30.52 in /  1033.4 hPa East 8.0 mph /  12.9 km/h 14.0 mph /  22.5 km/h 48 % 0.00 in /  0 mm 650 W/m2
13:32 54.7 °F /  12.6 °C 35.4 °F /  1.9 °C 30.52 in /  1033.4 hPa East 8.0 mph /  12.9 km/h 14.0 mph /  22.5 km/h 48 % 0.00 in /  0 mm 650 W/m2
13:37 54.7 °F /  12.6 °C 35.9 °F /  2.2 °C 30.52 in /  1033.4 hPa East 7.0 mph /  11.3 km/h 14.0 mph /  22.5 km/h 49 % 0.00 in /  0 mm 645 W/m2
13:42 54.7 °F /  12.6 °C 34.8 °F /  1.6 °C 30.52 in /  1033.4 hPa East 7.0 mph /  11.3 km/h 13.0 mph /  20.9 km/h 47 % 0.00 in /  0 mm 635 W/m2
13:47 54.9 °F /  12.7 °C 36.0 °F /  2.2 °C 30.52 in /  1033.4 hPa ESE 8.0 mph /  12.9 km/h 13.0 mph /  20.9 km/h 49 % 0.00 in /  0 mm 629 W/m2
13:52 55.0 °F /  12.8 °C 36.2 °F /  2.3 °C 30.51 in /  1033.1 hPa ESE 7.0 mph /  11.3 km/h 12.0 mph /  19.3 km/h 49 % 0.00 in /  0 mm 626 W/m2
13:57 55.2 °F /  12.9 °C 35.3 °F /  1.8 °C 30.51 in /  1033.1 hPa East 8.0 mph /  12.9 km/h 14.0 mph /  22.5 km/h 47 % 0.00 in /  0 mm 564 W/m2
14:02 55.0 °F /  12.8 °C 35.7 °F /  2.1 °C 30.51 in /  1033.1 hPa East 7.0 mph /  11.3 km/h 14.0 mph /  22.5 km/h 48 % 0.00 in /  0 mm 608 W/m2
14:07 55.4 °F /  13 °C 34.9 °F /  1.6 °C 30.51 in /  1033.1 hPa ENE 6.0 mph /  9.7 km/h 12.0 mph /  19.3 km/h 46 % 0.00 in /  0 mm 605 W/m2
14:13 55.4 °F /  13 °C 34.9 °F /  1.6 °C 30.51 in /  1033.1 hPa East 6.0 mph /  9.7 km/h 13.0 mph /  20.9 km/h 46 % 0.00 in /  0 mm 601 W/m2
14:18 55.6 °F /  13.1 °C 35.1 °F /  1.7 °C 30.51 in /  1033.1 hPa East 7.0 mph /  11.3 km/h 13.0 mph /  20.9 km/h 46 % 0.00 in /  0 mm 594 W/m2
14:23 55.4 °F /  13 °C 35.5 °F /  1.9 °C 30.50 in /  1032.7 hPa East 6.0 mph /  9.7 km/h 12.0 mph /  19.3 km/h 47 % 0.00 in /  0 mm 578 W/m2
14:28 55.6 °F /  13.1 °C 35.1 °F /  1.7 °C 30.50 in /  1032.7 hPa East 6.0 mph /  9.7 km/h 12.0 mph /  19.3 km/h 46 % 0.00 in /  0 mm 557 W/m2
14:33 55.8 °F /  13.2 °C 35.3 °F /  1.8 °C 30.50 in /  1032.7 hPa East 6.0 mph /  9.7 km/h 12.0 mph /  19.3 km/h 46 % 0.00 in /  0 mm 555 W/m2
14:38 55.8 °F /  13.2 °C 35.8 °F /  2.1 °C 30.50 in /  1032.7 hPa ENE 6.0 mph /  9.7 km/h 12.0 mph /  19.3 km/h 47 % 0.00 in /  0 mm 552 W/m2
14:43 55.8 °F /  13.2 °C 35.8 °F /  2.1 °C 30.50 in /  1032.7 hPa ENE 6.0 mph /  9.7 km/h 12.0 mph /  19.3 km/h 47 % 0.00 in /  0 mm 524 W/m2
14:48 55.6 °F /  13.1 °C 36.2 °F /  2.3 °C 30.50 in /  1032.7 hPa East 6.0 mph /  9.7 km/h 11.0 mph /  17.7 km/h 48 % 0.00 in /  0 mm 519 W/m2
14:53 55.6 °F /  13.1 °C 37.2 °F /  2.9 °C 30.50 in /  1032.7 hPa ENE 6.0 mph /  9.7 km/h 12.0 mph /  19.3 km/h 50 % 0.00 in /  0 mm 510 W/m2
14:58 55.2 °F /  12.9 °C 36.9 °F /  2.7 °C 30.50 in /  1032.7 hPa ENE 6.0 mph /  9.7 km/h 13.0 mph /  20.9 km/h 50 % 0.00 in /  0 mm 496 W/m2
15:03 55.0 °F /  12.8 °C 37.2 °F /  2.9 °C 30.50 in /  1032.7 hPa ENE 6.0 mph /  9.7 km/h 13.0 mph /  20.9 km/h 51 % 0.00 in /  0 mm 492 W/m2
15:08 55.2 °F /  12.9 °C 36.4 °F /  2.4 °C 30.50 in /  1032.7 hPa ENE 5.0 mph /  8 km/h 11.0 mph /  17.7 km/h 49 % 0.00 in /  0 mm 489 W/m2
15:13 55.8 °F /  13.2 °C 37.4 °F /  3 °C 30.50 in /  1032.7 hPa East 3.0 mph /  4.8 km/h 9.0 mph /  14.5 km/h 50 % 0.00 in /  0 mm 441 W/m2
15:18 55.8 °F /  13.2 °C 36.4 °F /  2.4 °C 30.50 in /  1032.7 hPa ENE 4.0 mph /  6.4 km/h 11.0 mph /  17.7 km/h 48 % 0.00 in /  0 mm 434 W/m2
15:23 55.2 °F /  12.9 °C 35.9 °F /  2.2 °C 30.50 in /  1032.7 hPa ENE 7.0 mph /  11.3 km/h 12.0 mph /  19.3 km/h 48 % 0.00 in /  0 mm 434 W/m2
15:28 55.0 °F /  12.8 °C 36.7 °F /  2.6 °C 30.50 in /  1032.7 hPa ENE 6.0 mph /  9.7 km/h 12.0 mph /  19.3 km/h 50 % 0.00 in /  0 mm 425 W/m2
15:33 55.0 °F /  12.8 °C 35.2 °F /  1.8 °C 30.51 in /  1033.1 hPa ENE 6.0 mph /  9.7 km/h 11.0 mph /  17.7 km/h 47 % 0.00 in /  0 mm 417 W/m2
15:38 55.0 °F /  12.8 °C 34.6 °F /  1.4 °C 30.51 in /  1033.1 hPa East 7.0 mph /  11.3 km/h 11.0 mph /  17.7 km/h 46 % 0.00 in /  0 mm 408 W/m2
15:43 55.0 °F /  12.8 °C 34.6 °F /  1.4 °C 30.51 in /  1033.1 hPa East 6.0 mph /  9.7 km/h 11.0 mph /  17.7 km/h 46 % 0.00 in /  0 mm 403 W/m2
15:53 54.9 °F /  12.7 °C 38.0 °F /  3.3 °C 30.51 in /  1033.1 hPa ENE 5.0 mph /  8 km/h 12.0 mph /  19.3 km/h 53 % 0.00 in /  0 mm 394 W/m2
15:58 54.7 °F /  12.6 °C 37.9 °F /  3.3 °C 30.50 in /  1032.7 hPa ENE 6.0 mph /  9.7 km/h 12.0 mph /  19.3 km/h 53 % 0.00 in /  0 mm 387 W/m2
16:03 54.3 °F /  12.4 °C 38.0 °F /  3.3 °C 30.50 in /  1032.7 hPa ENE 6.0 mph /  9.7 km/h 13.0 mph /  20.9 km/h 54 % 0.00 in /  0 mm 338 W/m2
16:08 54.0 °F /  12.2 °C 37.2 °F /  2.9 °C 30.50 in /  1032.7 hPa ENE 7.0 mph /  11.3 km/h 16.0 mph /  25.7 km/h 53 % 0.00 in /  0 mm 251 W/m2
16:13 53.8 °F /  12.1 °C 37.0 °F /  2.8 °C 30.50 in /  1032.7 hPa ENE 6.0 mph /  9.7 km/h 16.0 mph /  25.7 km/h 53 % 0.00 in /  0 mm 352 W/m2
16:18 53.8 °F /  12.1 °C 38.0 °F /  3.3 °C 30.50 in /  1032.7 hPa ENE 5.0 mph /  8 km/h 10.0 mph /  16.1 km/h 55 % 0.00 in /  0 mm 301 W/m2
16:23 53.8 °F /  12.1 °C 38.0 °F /  3.3 °C 30.51 in /  1033.1 hPa ENE 5.0 mph /  8 km/h 10.0 mph /  16.1 km/h 55 % 0.00 in /  0 mm 155 W/m2
16:28 53.2 °F /  11.8 °C 37.5 °F /  3.1 °C 30.51 in /  1033.1 hPa ENE 6.0 mph /  9.7 km/h 10.0 mph /  16.1 km/h 55 % 0.00 in /  0 mm 255 W/m2
16:29 53.2 °F /  11.8 °C 37.5 °F /  3.1 °C 30.51 in /  1033.1 hPa ENE 5.0 mph /  8 km/h 10.0 mph /  16.1 km/h 55 % 0.00 in /  0 mm 265 W/m2
16:34 53.1 °F /  11.7 °C 37.3 °F /  2.9 °C 30.51 in /  1033.1 hPa ENE 5.0 mph /  8 km/h 10.0 mph /  16.1 km/h 55 % 0.00 in /  0 mm 128 W/m2
16:35 53.1 °F /  11.7 °C 37.8 °F /  3.2 °C 30.50 in /  1032.7 hPa ENE 5.0 mph /  8 km/h 10.0 mph /  16.1 km/h 56 % 0.00 in /  0 mm 95 W/m2
16:40 52.7 °F /  11.5 °C 37.4 °F /  3 °C 30.51 in /  1033.1 hPa East 4.0 mph /  6.4 km/h 10.0 mph /  16.1 km/h 56 % 0.00 in /  0 mm 141 W/m2
16:45 52.5 °F /  11.4 °C 37.3 °F /  2.9 °C 30.51 in /  1033.1 hPa East 4.0 mph /  6.4 km/h 10.0 mph /  16.1 km/h 56 % 0.00 in /  0 mm 229 W/m2
16:50 52.7 °F /  11.5 °C 37.4 °F /  3 °C 30.51 in /  1033.1 hPa East 4.0 mph /  6.4 km/h 9.0 mph /  14.5 km/h 56 % 0.00 in /  0 mm 216 W/m2
16:55 52.7 °F /  11.5 °C 37.0 °F /  2.8 °C 30.51 in /  1033.1 hPa East 5.0 mph /  8 km/h 10.0 mph /  16.1 km/h 55 % 0.00 in /  0 mm 192 W/m2
17:00 52.7 °F /  11.5 °C 36.5 °F /  2.5 °C 30.51 in /  1033.1 hPa East 4.0 mph /  6.4 km/h 10.0 mph /  16.1 km/h 54 % 0.00 in /  0 mm 186 W/m2
17:05 52.5 °F /  11.4 °C 36.3 °F /  2.4 °C 30.51 in /  1033.1 hPa ENE 5.0 mph /  8 km/h 11.0 mph /  17.7 km/h 54 % 0.00 in /  0 mm 172 W/m2
17:10 52.3 °F /  11.3 °C 35.7 °F /  2.1 °C 30.51 in /  1033.1 hPa ENE 6.0 mph /  9.7 km/h 11.0 mph /  17.7 km/h 53 % 0.00 in /  0 mm 158 W/m2
17:15 52.2 °F /  11.2 °C 34.6 °F /  1.4 °C 30.52 in /  1033.4 hPa East 6.0 mph /  9.7 km/h 12.0 mph /  19.3 km/h 51 % 0.00 in /  0 mm 144 W/m2
17:20 52.0 °F /  11.1 °C 34.9 °F /  1.6 °C 30.52 in /  1033.4 hPa East 5.0 mph /  8 km/h 12.0 mph /  19.3 km/h 52 % 0.00 in /  0 mm 125 W/m2
17:25 51.6 °F /  10.9 °C 34.1 °F /  1.2 °C 30.52 in /  1033.4 hPa ENE 5.0 mph /  8 km/h 11.0 mph /  17.7 km/h 51 % 0.00 in /  0 mm 107 W/m2
17:30 51.4 °F /  10.8 °C 34.4 °F /  1.3 °C 30.52 in /  1033.4 hPa ENE 5.0 mph /  8 km/h 11.0 mph /  17.7 km/h 52 % 0.00 in /  0 mm 70 W/m2
17:35 51.1 °F /  10.6 °C 34.5 °F /  1.4 °C 30.52 in /  1033.4 hPa East 4.0 mph /  6.4 km/h 9.0 mph /  14.5 km/h 53 % 0.00 in /  0 mm 37 W/m2
17:40 50.7 °F /  10.4 °C 34.7 °F /  1.5 °C 30.52 in /  1033.4 hPa ENE 4.0 mph /  6.4 km/h 9.0 mph /  14.5 km/h 54 % 0.00 in /  0 mm 25 W/m2
17:45 50.4 °F /  10.2 °C 34.8 °F /  1.6 °C 30.52 in /  1033.4 hPa ENE 3.0 mph /  4.8 km/h 9.0 mph /  14.5 km/h 55 % 0.00 in /  0 mm 30 W/m2
17:50 50.0 °F /  10 °C 34.9 °F /  1.6 °C 30.52 in /  1033.4 hPa East 2.0 mph /  3.2 km/h 8.0 mph /  12.9 km/h 56 % 0.00 in /  0 mm 42 W/m2
17:55 49.8 °F /  9.9 °C 35.6 °F /  2 °C 30.52 in /  1033.4 hPa East 3.0 mph /  4.8 km/h 7.0 mph /  11.3 km/h 58 % 0.00 in /  0 mm 44 W/m2
18:00 49.6 °F /  9.8 °C 35.9 °F /  2.2 °C 30.52 in /  1033.4 hPa East 3.0 mph /  4.8 km/h 7.0 mph /  11.3 km/h 59 % 0.00 in /  0 mm 28 W/m2
18:10 49.1 °F /  9.5 °C 35.8 °F /  2.1 °C 30.53 in /  1033.7 hPa ENE 3.0 mph /  4.8 km/h 8.0 mph /  12.9 km/h 60 % 0.00 in /  0 mm 16 W/m2
18:15 48.7 °F /  9.3 °C 35.9 °F /  2.2 °C 30.53 in /  1033.7 hPa ENE 3.0 mph /  4.8 km/h 7.0 mph /  11.3 km/h 61 % 0.00 in /  0 mm 14 W/m2
18:20 48.6 °F /  9.2 °C 36.1 °F /  2.3 °C 30.53 in /  1033.7 hPa ENE 2.0 mph /  3.2 km/h 7.0 mph /  11.3 km/h 62 % 0.00 in /  0 mm 11 W/m2
18:25 48.2 °F /  9 °C 35.8 °F /  2.1 °C 30.53 in /  1033.7 hPa ENE 2.0 mph /  3.2 km/h 7.0 mph /  11.3 km/h 62 % 0.00 in /  0 mm 5 W/m2
18:30 47.8 °F /  8.8 °C 35.4 °F /  1.9 °C 30.53 in /  1033.7 hPa ENE 3.0 mph /  4.8 km/h 7.0 mph /  11.3 km/h 62 % 0.00 in /  0 mm 0 W/m2
18:36 47.7 °F /  8.7 °C 35.7 °F /  2.1 °C 30.53 in /  1033.7 hPa ENE 3.0 mph /  4.8 km/h 7.0 mph /  11.3 km/h 63 % 0.00 in /  0 mm 0 W/m2
18:41 47.5 °F /  8.6 °C 35.9 °F /  2.2 °C 30.54 in /  1034.1 hPa ENE 2.0 mph /  3.2 km/h 6.0 mph /  9.7 km/h 64 % 0.00 in /  0 mm 0 W/m2
18:46 47.1 °F /  8.4 °C 36.0 °F /  2.2 °C 30.54 in /  1034.1 hPa ENE 1.0 mph /  1.6 km/h 6.0 mph /  9.7 km/h 65 % 0.00 in /  0 mm 0 W/m2
18:51 46.8 °F /  8.2 °C 35.2 °F /  1.8 °C 30.54 in /  1034.1 hPa ENE 2.0 mph /  3.2 km/h 8.0 mph /  12.9 km/h 64 % 0.00 in /  0 mm 0 W/m2
18:56 46.6 °F /  8.1 °C 34.7 °F /  1.5 °C 30.54 in /  1034.1 hPa ENE 3.0 mph /  4.8 km/h 8.0 mph /  12.9 km/h 63 % 0.00 in /  0 mm 0 W/m2
19:01 46.4 °F /  8 °C 34.5 °F /  1.4 °C 30.54 in /  1034.1 hPa ENE 3.0 mph /  4.8 km/h 8.0 mph /  12.9 km/h 63 % 0.00 in /  0 mm 0 W/m2
19:06 46.2 °F /  7.9 °C 34.3 °F /  1.3 °C 30.54 in /  1034.1 hPa ENE 2.0 mph /  3.2 km/h 6.0 mph /  9.7 km/h 63 % 0.00 in /  0 mm 0 W/m2
19:11 46.0 °F /  7.8 °C 34.5 °F /  1.4 °C 30.55 in /  1034.4 hPa ENE 1.0 mph /  1.6 km/h 6.0 mph /  9.7 km/h 64 % 0.00 in /  0 mm 0 W/m2
19:16 45.9 °F /  7.7 °C 34.8 °F /  1.6 °C 30.55 in /  1034.4 hPa Calm   4.0 mph /  6.4 km/h 65 % 0.00 in /  0 mm 0 W/m2
19:26 45.1 °F /  7.3 °C 34.1 °F /  1.2 °C 30.56 in /  1034.8 hPa East 1.0 mph /  1.6 km/h 5.0 mph /  8 km/h 65 % 0.00 in /  0 mm 0 W/m2
19:31 45.0 °F /  7.2 °C 34.3 °F /  1.3 °C 30.56 in /  1034.8 hPa ENE 1.0 mph /  1.6 km/h 5.0 mph /  8 km/h 66 % 0.00 in /  0 mm 0 W/m2
19:36 44.8 °F /  7.1 °C 34.5 °F /  1.4 °C 30.56 in /  1034.8 hPa Calm   5.0 mph /  8 km/h 67 % 0.00 in /  0 mm 0 W/m2
19:41 44.4 °F /  6.9 °C 34.1 °F /  1.2 °C 30.56 in /  1034.8 hPa Calm   5.0 mph /  8 km/h 67 % 0.00 in /  0 mm 0 W/m2
19:46 44.2 °F /  6.8 °C 34.3 °F /  1.3 °C 30.56 in /  1034.8 hPa Calm   2.0 mph /  3.2 km/h 68 % 0.00 in /  0 mm 0 W/m2
19:51 43.9 °F /  6.6 °C 34.4 °F /  1.3 °C 30.56 in /  1034.8 hPa Calm     69 % 0.00 in /  0 mm 0 W/m2
19:56 43.5 °F /  6.4 °C 34.4 °F /  1.3 °C 30.56 in /  1034.8 hPa Calm     70 % 0.00 in /  0 mm 0 W/m2
20:01 43.2 °F /  6.2 °C 34.4 °F /  1.3 °C 30.56 in /  1034.8 hPa Calm     71 % 0.00 in /  0 mm 0 W/m2
20:02 43.2 °F /  6.2 °C 34.4 °F /  1.3 °C 30.57 in /  1035.1 hPa Calm     71 % 0.00 in /  0 mm 0 W/m2
20:07 42.8 °F /  6 °C 34.4 °F /  1.3 °C 30.57 in /  1035.1 hPa Calm     72 % 0.00 in /  0 mm 0 W/m2
20:12 42.4 °F /  5.8 °C 34.0 °F /  1.1 °C 30.57 in /  1035.1 hPa Calm     72 % 0.00 in /  0 mm 0 W/m2
20:17 42.1 °F /  5.6 °C 34.0 °F /  1.1 °C 30.57 in /  1035.1 hPa Calm     73 % 0.00 in /  0 mm 0 W/m2
20:22 41.5 °F /  5.3 °C 33.5 °F /  0.8 °C 30.58 in /  1035.4 hPa Calm     73 % 0.00 in /  0 mm 0 W/m2
20:27 41.2 °F /  5.1 °C 33.5 °F /  0.8 °C 30.58 in /  1035.4 hPa Calm     74 % 0.00 in /  0 mm 0 W/m2
20:32 40.8 °F /  4.9 °C 33.5 °F /  0.8 °C 30.58 in /  1035.4 hPa Calm     75 % 0.00 in /  0 mm 0 W/m2
20:37 40.5 °F /  4.7 °C 33.5 °F /  0.8 °C 30.58 in /  1035.4 hPa Calm     76 % 0.00 in /  0 mm 0 W/m2
20:42 40.3 °F /  4.6 °C 33.6 °F /  0.9 °C 30.58 in /  1035.4 hPa Calm     77 % 0.00 in /  0 mm 0 W/m2
20:47 39.9 °F /  4.4 °C 33.3 °F /  0.7 °C 30.58 in /  1035.4 hPa Calm     77 % 0.00 in /  0 mm 0 W/m2
20:52 39.7 °F /  4.3 °C 33.4 °F /  0.8 °C 30.58 in /  1035.4 hPa Calm     78 % 0.00 in /  0 mm 0 W/m2
20:57 39.6 °F /  4.2 °C 33.6 °F /  0.9 °C 30.58 in /  1035.4 hPa Calm     79 % 0.00 in /  0 mm 0 W/m2
21:02 39.2 °F /  4 °C 33.2 °F /  0.7 °C 30.58 in /  1035.4 hPa Calm     79 % 0.00 in /  0 mm 0 W/m2
21:07 38.8 °F /  3.8 °C 33.2 °F /  0.7 °C 30.58 in /  1035.4 hPa Calm     80 % 0.00 in /  0 mm 0 W/m2
21:12 38.5 °F /  3.6 °C 33.2 °F /  0.7 °C 30.58 in /  1035.4 hPa Calm     81 % 0.00 in /  0 mm 0 W/m2
21:17 38.3 °F /  3.5 °C 33.3 °F /  0.7 °C 30.58 in /  1035.4 hPa Calm     82 % 0.00 in /  0 mm 0 W/m2
21:22 37.9 °F /  3.3 °C 32.9 °F /  0.5 °C 30.59 in /  1035.8 hPa Calm     82 % 0.00 in /  0 mm 0 W/m2
21:23 37.9 °F /  3.3 °C 32.9 °F /  0.5 °C 30.59 in /  1035.8 hPa Calm     82 % 0.00 in /  0 mm 0 W/m2
21:28 37.8 °F /  3.2 °C 32.8 °F /  0.4 °C 30.59 in /  1035.8 hPa Calm   2.0 mph /  3.2 km/h 82 % 0.00 in /  0 mm 0 W/m2
21:38 37.6 °F /  3.1 °C 33.2 °F /  0.7 °C 30.59 in /  1035.8 hPa ENE 1.0 mph /  1.6 km/h 4.0 mph /  6.4 km/h 84 % 0.00 in /  0 mm 0 W/m2
21:43 37.4 °F /  3 °C 33.0 °F /  0.6 °C 30.59 in /  1035.8 hPa Calm   2.0 mph /  3.2 km/h 84 % 0.00 in /  0 mm 0 W/m2
21:48 37.2 °F /  2.9 °C 32.8 °F /  0.4 °C 30.59 in /  1035.8 hPa Calm     84 % 0.00 in /  0 mm 0 W/m2
21:53 37.0 °F /  2.8 °C 32.7 °F /  0.4 °C 30.60 in /  1036.1 hPa Calm     84 % 0.00 in /  0 mm 0 W/m2
21:58 36.9 °F /  2.7 °C 32.5 °F /  0.3 °C 30.60 in /  1036.1 hPa Calm     84 % 0.00 in /  0 mm 0 W/m2
22:03 36.7 °F /  2.6 °C 32.6 °F /  0.3 °C 30.60 in /  1036.1 hPa Calm     85 % 0.00 in /  0 mm 0 W/m2
22:08 36.5 °F /  2.5 °C 32.4 °F /  0.2 °C 30.60 in /  1036.1 hPa Calm     85 % 0.00 in /  0 mm 0 W/m2
22:13 36.1 °F /  2.3 °C 32.1 °F /  0.1 °C 30.60 in /  1036.1 hPa Calm     85 % 0.00 in /  0 mm 0 W/m2
22:18 36.1 °F /  2.3 °C 32.4 °F /  0.2 °C 30.60 in /  1036.1 hPa Calm     86 % 0.00 in /  0 mm 0 W/m2
22:23 36.1 °F /  2.3 °C 32.4 °F /  0.2 °C 30.60 in /  1036.1 hPa Calm     86 % 0.00 in /  0 mm 0 W/m2
22:28 36.0 °F /  2.2 °C 32.2 °F /  0.1 °C 30.60 in /  1036.1 hPa Calm     86 % 0.00 in /  0 mm 0 W/m2
22:33 35.8 °F /  2.1 °C 32.0 °F /  0 °C 30.60 in /  1036.1 hPa Calm     86 % 0.00 in /  0 mm 0 W/m2
22:35 35.6 °F /  2 °C 31.8 °F /  -0.1 °C 30.60 in /  1036.1 hPa Calm     86 % 0.00 in /  0 mm 0 W/m2
22:40 35.6 °F /  2 °C 32.1 °F /  0.1 °C 30.59 in /  1035.8 hPa Calm     87 % 0.00 in /  0 mm 0 W/m2
22:45 35.2 °F /  1.8 °C 31.5 °F /  -0.3 °C 30.59 in /  1035.8 hPa Calm     86 % 0.00 in /  0 mm 0 W/m2
22:50 35.1 °F /  1.7 °C 31.3 °F /  -0.4 °C 30.59 in /  1035.8 hPa Calm     86 % 0.00 in /  0 mm 0 W/m2
22:55 34.9 °F /  1.6 °C 31.4 °F /  -0.3 °C 30.59 in /  1035.8 hPa Calm     87 % 0.00 in /  0 mm 0 W/m2
23:00 34.5 °F /  1.4 °C 31.0 °F /  -0.6 °C 30.60 in /  1036.1 hPa Calm     87 % 0.00 in /  0 mm 0 W/m2
23:05 34.3 °F /  1.3 °C 30.9 °F /  -0.6 °C 30.59 in /  1035.8 hPa Calm     87 % 0.00 in /  0 mm 0 W/m2
23:10 34.2 °F /  1.2 °C 31.0 °F /  -0.6 °C 30.59 in /  1035.8 hPa Calm     88 % 0.00 in /  0 mm 0 W/m2
23:15 34.0 °F /  1.1 °C 30.8 °F /  -0.7 °C 30.60 in /  1036.1 hPa Calm     88 % 0.00 in /  0 mm 0 W/m2
23:20 34.0 °F /  1.1 °C 30.8 °F /  -0.7 °C 30.59 in /  1035.8 hPa Calm     88 % 0.00 in /  0 mm 0 W/m2
23:25 33.8 °F /  1 °C 30.6 °F /  -0.8 °C 30.59 in /  1035.8 hPa Calm     88 % 0.00 in /  0 mm 0 W/m2
23:30 33.6 °F /  0.9 °C 30.4 °F /  -0.9 °C 30.59 in /  1035.8 hPa Calm     88 % 0.00 in /  0 mm 0 W/m2
23:35 33.6 °F /  0.9 °C 30.7 °F /  -0.7 °C 30.59 in /  1035.8 hPa Calm     89 % 0.00 in /  0 mm 0 W/m2
23:45 33.3 °F /  0.7 °C 30.4 °F /  -0.9 °C 30.59 in /  1035.8 hPa Calm     89 % 0.00 in /  0 mm 0 W/m2
23:50 33.3 °F /  0.7 °C 30.6 °F /  -0.8 °C 30.59 in /  1035.8 hPa Calm     90 % 0.00 in /  0 mm 0 W/m2
23:55 33.3 °F /  0.7 °C 30.4 °F /  -0.9 °C 30.60 in /  1036.1 hPa Calm     89 % 0.00 in /  0 mm 0 W/m2
Delerius-Weather
Compliments of Weather Underground - 2.25 mb

Data updates at regular intervals.